Time;durP1;ratioP1;P1;durP2;ratioP2;P2;SDS_P1;SDS_P2;PMS_P1;PMS_P2;Temp;Humidity;BMP_temperature;BMP_pressure;BME280_temperature;BME280_humidity;BME280_pressure;Samples;Min_cycle;Max_cycle;Signal;HPM_P1;HPM_P2
2023/05/02 00:01:35;;;;;;;0.60;0.60;;;;;;;;;;4912930;29;20482;-81
2023/05/02 00:04:03;;;;;;;0.70;0.60;;;;;;;;;;4929803;29;20951;-81
2023/05/02 00:06:31;;;;;;;0.60;0.50;;;;;;;;;;4931129;29;20469;-79
2023/05/02 00:08:58;;;;;;;1.27;1.17;;;;;;;;;;4925778;29;20928;-81
2023/05/02 00:11:25;;;;;;;0.70;0.70;;;;;;;;;;4930510;29;20448;-81
2023/05/02 00:13:52;;;;;;;1.00;1.00;;;;;;;;;;4926297;29;20888;-81
2023/05/02 00:16:19;;;;;;;0.80;0.80;;;;;;;;;;4934803;29;20939;-80
2023/05/02 00:18:46;;;;;;;0.60;0.60;;;;;;;;;;4931733;29;20603;-80
2023/05/02 00:21:14;;;;;;;0.77;0.77;;;;;;;;;;4934881;29;20485;-80
2023/05/02 00:23:42;;;;;;;1.43;1.33;;;;;;;;;;4944424;29;20460;-81
2023/05/02 00:26:08;;;;;;;0.60;0.50;;;;;;;;;;4930275;29;20962;-81
2023/05/02 00:28:39;;;;;;;0.60;0.60;;;;;;;;;;4934787;29;20809;-80
2023/05/02 00:31:06;;;;;;;0.70;0.60;;;;;;;;;;4929622;29;20816;-81
2023/05/02 00:33:33;;;;;;;0.60;0.50;;;;;;;;;;4934138;29;20463;-80
2023/05/02 00:36:00;;;;;;;2.70;2.53;;;;;;;;;;4930318;29;20981;-80
2023/05/02 00:38:28;;;;;;;0.60;0.50;;;;;;;;;;4932716;29;20465;-81
2023/05/02 00:40:55;;;;;;;0.60;0.60;;;;;;;;;;4927401;29;20514;-81
2023/05/02 00:43:22;;;;;;;0.60;0.60;;;;;;;;;;4934026;29;20495;-81
2023/05/02 00:45:49;;;;;;;3.97;2.00;;;;;;;;;;4931793;29;20441;-81
2023/05/02 00:48:19;;;;;;;1.40;1.30;;;;;;;;;;4926547;29;20882;-81
2023/05/02 00:50:46;;;;;;;1.13;1.13;;;;;;;;;;4908155;29;20572;-80
2023/05/02 00:53:13;;;;;;;1.17;1.17;;;;;;;;;;4932880;29;20825;-81
2023/05/02 00:55:42;;;;;;;0.60;0.60;;;;;;;;;;4929132;29;20438;-81
2023/05/02 00:58:10;;;;;;;0.60;0.50;;;;;;;;;;4923879;29;20480;-80
2023/05/02 01:00:43;;;;;;;0.60;0.60;;;;;;;;;;4932903;29;20541;-81
2023/05/02 01:03:16;;;;;;;1.33;1.23;;;;;;;;;;4918767;29;20839;-81
2023/05/02 01:05:47;;;;;;;0.70;0.60;;;;;;;;;;4921300;29;20450;-82
2023/05/02 01:08:18;;;;;;;0.60;0.60;;;;;;;;;;4926514;29;20482;-82
2023/05/02 01:10:51;;;;;;;0.60;0.60;;;;;;;;;;4933896;29;20454;-83
2023/05/02 01:13:21;;;;;;;1.40;1.30;;;;;;;;;;4934306;29;20455;-80
2023/05/02 01:15:50;;;;;;;0.60;0.50;;;;;;;;;;4915380;29;20451;-82
2023/05/02 01:18:19;;;;;;;1.43;1.33;;;;;;;;;;4927784;29;20862;-81
2023/05/02 01:20:49;;;;;;;0.60;0.60;;;;;;;;;;4933348;29;21055;-80
2023/05/02 01:23:19;;;;;;;0.60;0.60;;;;;;;;;;4929604;29;21061;-83
2023/05/02 01:26:04;;;;;;;0.60;0.60;;;;;;;;;;4927365;29;20443;-81
2023/05/02 01:28:35;;;;;;;0.70;0.60;;;;;;;;;;4930592;29;20437;-80
2023/05/02 01:31:05;;;;;;;0.60;0.60;;;;;;;;;;4934825;29;20917;-83
2023/05/02 01:33:35;;;;;;;2.10;1.43;;;;;;;;;;4929006;29;20442;-81
2023/05/02 01:36:02;;;;;;;0.60;0.60;;;;;;;;;;4937501;29;20823;-80
2023/05/02 01:38:29;;;;;;;0.67;0.67;;;;;;;;;;4917878;29;20474;-81
2023/05/02 01:40:57;;;;;;;1.60;1.20;;;;;;;;;;4936744;29;20470;-81
2023/05/02 01:43:25;;;;;;;0.60;0.60;;;;;;;;;;4930216;29;21095;-81
2023/05/02 01:45:53;;;;;;;0.60;0.60;;;;;;;;;;4928732;29;20447;-79
2023/05/02 01:48:23;;;;;;;0.60;0.60;;;;;;;;;;4929681;29;20857;-79
2023/05/02 01:50:50;;;;;;;0.70;0.63;;;;;;;;;;4918043;29;20862;-81
2023/05/02 01:53:17;;;;;;;1.33;1.23;;;;;;;;;;4925983;29;20457;-81
2023/05/02 01:55:45;;;;;;;0.60;0.60;;;;;;;;;;4926826;29;20549;-81
2023/05/02 01:58:13;;;;;;;0.60;0.50;;;;;;;;;;4924997;29;20447;-81
2023/05/02 02:00:40;;;;;;;0.70;0.60;;;;;;;;;;4932027;29;20509;-79
2023/05/02 02:03:08;;;;;;;0.70;0.60;;;;;;;;;;4915176;29;20449;-79
2023/05/02 02:05:36;;;;;;;0.60;0.60;;;;;;;;;;4927754;29;20454;-80
2023/05/02 02:08:03;;;;;;;0.80;0.80;;;;;;;;;;4934240;29;20469;-81
2023/05/02 02:10:34;;;;;;;0.70;0.60;;;;;;;;;;4929983;29;20469;-82
2023/05/02 02:13:05;;;;;;;0.60;0.60;;;;;;;;;;4945411;29;20459;-82
2023/05/02 02:15:34;;;;;;;0.60;0.57;;;;;;;;;;4926207;29;20496;-80
2023/05/02 02:18:06;;;;;;;0.60;0.60;;;;;;;;;;4925350;29;20530;-81
2023/05/02 02:20:34;;;;;;;0.60;0.60;;;;;;;;;;4934168;29;20469;-80
2023/05/02 02:23:05;;;;;;;0.60;0.60;;;;;;;;;;4926253;29;20473;-82
2023/05/02 02:25:32;;;;;;;0.60;0.60;;;;;;;;;;4930629;29;20920;-82
2023/05/02 02:27:59;;;;;;;0.80;0.80;;;;;;;;;;4912754;29;20551;-81
2023/05/02 02:30:26;;;;;;;0.70;0.70;;;;;;;;;;4933826;29;20480;-82
2023/05/02 02:32:53;;;;;;;0.97;0.97;;;;;;;;;;4917006;29;20858;-81
2023/05/02 02:35:21;;;;;;;0.60;0.60;;;;;;;;;;4930425;29;20815;-81
2023/05/02 02:37:53;;;;;;;0.60;0.60;;;;;;;;;;4923840;29;20480;-81
2023/05/02 02:40:23;;;;;;;0.60;0.60;;;;;;;;;;4929826;29;20823;-80
2023/05/02 02:42:54;;;;;;;0.60;0.50;;;;;;;;;;4925477;29;20872;-80
2023/05/02 02:45:26;;;;;;;1.57;1.47;;;;;;;;;;4928477;29;20475;-81
2023/05/02 02:47:58;;;;;;;0.60;0.60;;;;;;;;;;4927586;29;20832;-81
2023/05/02 02:50:29;;;;;;;0.60;0.60;;;;;;;;;;4927288;29;20452;-82
2023/05/02 02:52:57;;;;;;;0.60;0.50;;;;;;;;;;4906480;29;21033;-83
2023/05/02 02:55:33;;;;;;;0.87;0.87;;;;;;;;;;4902248;29;20858;-81
2023/05/02 02:58:02;;;;;;;0.70;0.70;;;;;;;;;;4927550;29;21278;-80
2023/05/02 03:00:31;;;;;;;1.00;1.00;;;;;;;;;;4922256;29;20953;-81
2023/05/02 03:02:59;;;;;;;0.60;0.60;;;;;;;;;;4928033;29;20498;-81
2023/05/02 03:05:26;;;;;;;0.70;0.70;;;;;;;;;;4931868;29;20454;-79
2023/05/02 03:07:53;;;;;;;0.60;0.60;;;;;;;;;;4929967;29;20498;-80
2023/05/02 03:10:22;;;;;;;0.80;0.80;;;;;;;;;;4931040;29;20440;-79
2023/05/02 03:12:54;;;;;;;0.60;0.60;;;;;;;;;;4930356;29;20844;-81
2023/05/02 03:15:42;;;;;;;0.70;0.60;;;;;;;;;;4940599;29;20472;-79
2023/05/02 03:18:10;;;;;;;0.90;0.90;;;;;;;;;;4924957;29;20814;-80
2023/05/02 03:20:38;;;;;;;0.60;0.60;;;;;;;;;;4932078;29;20457;-80
2023/05/02 03:23:06;;;;;;;0.70;0.60;;;;;;;;;;4932643;29;20855;-80
2023/05/02 03:25:33;;;;;;;0.70;0.70;;;;;;;;;;4926237;29;20446;-80
2023/05/02 03:28:01;;;;;;;1.47;1.23;;;;;;;;;;4925029;29;20491;-80
2023/05/02 03:30:28;;;;;;;0.70;0.60;;;;;;;;;;4931901;29;20593;-80
2023/05/02 03:33:00;;;;;;;0.60;0.53;;;;;;;;;;4932646;29;20443;-80
2023/05/02 03:35:28;;;;;;;0.60;0.60;;;;;;;;;;4924610;29;20463;-80
2023/05/02 03:37:56;;;;;;;0.70;0.70;;;;;;;;;;4927188;29;20582;-81
2023/05/02 03:40:26;;;;;;;0.60;0.50;;;;;;;;;;4919159;29;20542;-82
2023/05/02 03:42:55;;;;;;;0.80;0.80;;;;;;;;;;4916050;29;20475;-81
2023/05/02 03:45:29;;;;;;;1.83;1.03;;;;;;;;;;4943025;29;20457;-81
2023/05/02 03:47:58;;;;;;;0.60;0.60;;;;;;;;;;4924863;29;20491;-81
2023/05/02 03:50:26;;;;;;;1.37;1.27;;;;;;;;;;4925111;29;20562;-81
2023/05/02 03:52:55;;;;;;;0.60;0.60;;;;;;;;;;4928110;29;20886;-82
2023/05/02 03:55:32;;;;;;;0.63;0.60;;;;;;;;;;4914957;29;20461;-81
2023/05/02 03:57:59;;;;;;;0.67;0.60;;;;;;;;;;4917297;29;20818;-81
2023/05/02 04:00:31;;;;;;;0.70;0.60;;;;;;;;;;4947691;29;20477;-81
2023/05/02 04:03:03;;;;;;;0.60;0.60;;;;;;;;;;4917347;29;20490;-80
2023/05/02 04:05:32;;;;;;;0.70;0.70;;;;;;;;;;4934149;29;20463;-83
2023/05/02 04:08:01;;;;;;;0.70;0.70;;;;;;;;;;4933487;29;20492;-82
2023/05/02 04:10:29;;;;;;;0.70;0.70;;;;;;;;;;4931574;29;20458;-81
2023/05/02 04:13:02;;;;;;;0.60;0.60;;;;;;;;;;4946697;29;20447;-81
2023/05/02 04:15:32;;;;;;;0.60;0.60;;;;;;;;;;4929252;29;20850;-83
2023/05/02 04:18:01;;;;;;;0.67;0.60;;;;;;;;;;4931677;29;20572;-82
2023/05/02 04:20:29;;;;;;;0.73;0.67;;;;;;;;;;4914379;29;20847;-85
2023/05/02 04:22:58;;;;;;;0.60;0.60;;;;;;;;;;4910643;29;20485;-84
2023/05/02 04:25:26;;;;;;;0.70;0.60;;;;;;;;;;4931920;29;20466;-82
2023/05/02 04:27:55;;;;;;;0.70;0.70;;;;;;;;;;4913711;29;20456;-83
2023/05/02 04:30:24;;;;;;;0.70;0.60;;;;;;;;;;4916686;29;20467;-80
2023/05/02 04:33:00;;;;;;;0.60;0.60;;;;;;;;;;4920877;29;20547;-82
2023/05/02 04:35:35;;;;;;;2.90;1.20;;;;;;;;;;4931301;29;20500;-83
2023/05/02 04:38:03;;;;;;;0.70;0.70;;;;;;;;;;4943121;29;20492;-83
2023/05/02 04:40:31;;;;;;;0.70;0.70;;;;;;;;;;4931009;29;21155;-83
2023/05/02 04:43:02;;;;;;;0.60;0.60;;;;;;;;;;4931224;29;20567;-82
2023/05/02 04:45:43;;;;;;;0.70;0.60;;;;;;;;;;4918383;29;20453;-83
2023/05/02 04:48:20;;;;;;;0.60;0.60;;;;;;;;;;4942009;29;20903;-82
2023/05/02 04:50:48;;;;;;;0.83;0.83;;;;;;;;;;4924324;29;20454;-82
2023/05/02 04:53:15;;;;;;;0.60;0.60;;;;;;;;;;4925993;29;21005;-81
2023/05/02 04:55:42;;;;;;;0.70;0.60;;;;;;;;;;4929456;29;20496;-82
2023/05/02 04:58:09;;;;;;;0.60;0.60;;;;;;;;;;4914061;29;20459;-82
2023/05/02 05:00:43;;;;;;;0.70;0.60;;;;;;;;;;4927127;29;20461;-84
2023/05/02 05:03:10;;;;;;;0.60;0.60;;;;;;;;;;4909316;29;20560;-82
2023/05/02 05:05:38;;;;;;;0.93;0.93;;;;;;;;;;4941054;29;20444;-83
2023/05/02 05:08:11;;;;;;;0.70;0.60;;;;;;;;;;4914446;29;20552;-84
2023/05/02 05:10:39;;;;;;;0.60;0.60;;;;;;;;;;4929059;29;20441;-84
2023/05/02 05:13:08;;;;;;;0.60;0.60;;;;;;;;;;4929074;29;20567;-86
2023/05/02 05:15:35;;;;;;;0.60;0.60;;;;;;;;;;4938007;29;20457;-84
2023/05/02 05:18:04;;;;;;;0.70;0.60;;;;;;;;;;4940403;29;20551;-83
2023/05/02 05:20:32;;;;;;;0.63;0.60;;;;;;;;;;4941125;29;20448;-84
2023/05/02 05:23:03;;;;;;;0.67;0.60;;;;;;;;;;4943204;29;20483;-83
2023/05/02 05:25:32;;;;;;;0.60;0.60;;;;;;;;;;4927242;29;20459;-82
2023/05/02 05:28:00;;;;;;;0.60;0.60;;;;;;;;;;4945885;29;20447;-83
2023/05/02 05:30:36;;;;;;;0.60;0.60;;;;;;;;;;4924522;29;20861;-84
2023/05/02 05:33:10;;;;;;;0.60;0.60;;;;;;;;;;4934032;29;20480;-83
2023/05/02 05:35:38;;;;;;;0.70;0.60;;;;;;;;;;4918806;29;20499;-83
2023/05/02 05:38:10;;;;;;;0.60;0.60;;;;;;;;;;4928690;29;21014;-82
2023/05/02 05:40:44;;;;;;;0.60;0.60;;;;;;;;;;4918744;29;20452;-84
2023/05/02 05:43:11;;;;;;;0.70;0.70;;;;;;;;;;4937025;29;20488;-81
2023/05/02 05:45:52;;;;;;;0.70;0.60;;;;;;;;;;4933844;29;20460;-82
2023/05/02 05:48:20;;;;;;;0.70;0.70;;;;;;;;;;4939449;29;20464;-83
2023/05/02 05:50:48;;;;;;;0.70;0.67;;;;;;;;;;4916931;29;20447;-83
2023/05/02 05:53:22;;;;;;;0.80;0.70;;;;;;;;;;4941351;29;20517;-84
2023/05/02 05:55:52;;;;;;;0.67;0.60;;;;;;;;;;4917468;29;21043;-84
2023/05/02 05:58:19;;;;;;;0.70;0.67;;;;;;;;;;4945896;29;21036;-83
2023/05/02 06:00:49;;;;;;;0.60;0.60;;;;;;;;;;4937342;28;20426;-81
2023/05/02 06:03:16;;;;;;;1.00;1.00;;;;;;;;;;4932023;29;20603;-83
2023/05/02 06:05:46;;;;;;;0.70;0.70;;;;;;;;;;4930776;29;20439;-83
2023/05/02 06:08:13;;;;;;;0.70;0.60;;;;;;;;;;4934504;29;20859;-80
2023/05/02 06:10:41;;;;;;;2.40;2.30;;;;;;;;;;4934512;29;20469;-82
2023/05/02 06:13:08;;;;;;;0.93;0.93;;;;;;;;;;4938556;29;20942;-84
2023/05/02 06:15:40;;;;;;;0.67;0.60;;;;;;;;;;4936446;29;21041;-81
2023/05/02 06:18:08;;;;;;;0.70;0.70;;;;;;;;;;4931209;29;20452;-80
2023/05/02 06:20:36;;;;;;;0.67;0.60;;;;;;;;;;4920738;29;20471;-83
2023/05/02 06:23:03;;;;;;;0.70;0.70;;;;;;;;;;4931570;29;20523;-83
2023/05/02 06:25:32;;;;;;;1.00;0.90;;;;;;;;;;4947083;29;20488;-82
2023/05/02 06:28:02;;;;;;;0.70;0.70;;;;;;;;;;4923542;29;20523;-83
2023/05/02 06:30:30;;;;;;;0.70;0.60;;;;;;;;;;4935278;29;20996;-82
2023/05/02 06:32:57;;;;;;;0.70;0.60;;;;;;;;;;4928460;29;20496;-84
2023/05/02 06:35:25;;;;;;;0.67;0.60;;;;;;;;;;4936513;29;20466;-84
2023/05/02 06:37:52;;;;;;;0.70;0.60;;;;;;;;;;4941495;29;20488;-84
2023/05/02 06:40:21;;;;;;;0.70;0.60;;;;;;;;;;4922859;29;20526;-83
2023/05/02 06:42:48;;;;;;;0.70;0.70;;;;;;;;;;4936702;29;20487;-82
2023/05/02 06:45:16;;;;;;;0.70;0.63;;;;;;;;;;4920227;29;20461;-84
2023/05/02 06:47:43;;;;;;;0.70;0.67;;;;;;;;;;4942168;29;20453;-81
2023/05/02 06:50:10;;;;;;;0.70;0.60;;;;;;;;;;4921863;29;20810;-81
2023/05/02 06:52:37;;;;;;;0.60;0.60;;;;;;;;;;4937536;29;20455;-81
2023/05/02 06:55:04;;;;;;;0.70;0.70;;;;;;;;;;4934144;29;20511;-83
2023/05/02 06:57:31;;;;;;;0.63;0.60;;;;;;;;;;4931987;29;20899;-84
2023/05/02 07:00:00;;;;;;;0.67;0.63;;;;;;;;;;4930414;29;20453;-83
2023/05/02 07:02:32;;;;;;;0.60;0.60;;;;;;;;;;4930436;29;20533;-84
2023/05/02 07:05:00;;;;;;;0.67;0.60;;;;;;;;;;4930810;29;20524;-84
2023/05/02 07:07:28;;;;;;;0.70;0.70;;;;;;;;;;4937686;29;20460;-81
2023/05/02 07:09:55;;;;;;;0.80;0.80;;;;;;;;;;4937743;29;20464;-84
2023/05/02 07:12:22;;;;;;;0.60;0.60;;;;;;;;;;4938069;29;20453;-83
2023/05/02 07:14:49;;;;;;;0.60;0.50;;;;;;;;;;4939884;29;20441;-84
2023/05/02 07:17:16;;;;;;;0.70;0.70;;;;;;;;;;4928423;29;20472;-83
2023/05/02 07:19:45;;;;;;;0.70;0.60;;;;;;;;;;4922099;29;20453;-84
2023/05/02 07:22:13;;;;;;;0.60;0.60;;;;;;;;;;4939423;29;20467;-82
2023/05/02 07:24:41;;;;;;;0.60;0.50;;;;;;;;;;4944653;29;20452;-83
2023/05/02 07:27:08;;;;;;;1.23;1.13;;;;;;;;;;4932885;29;20465;-83
2023/05/02 07:29:36;;;;;;;0.70;0.70;;;;;;;;;;4942918;29;20452;-82
2023/05/02 07:32:03;;;;;;;0.70;0.60;;;;;;;;;;4930447;29;20454;-81
2023/05/02 07:34:34;;;;;;;0.70;0.60;;;;;;;;;;4932327;29;20456;-84
2023/05/02 07:37:02;;;;;;;0.70;0.60;;;;;;;;;;4933900;29;20474;-84
2023/05/02 07:39:31;;;;;;;0.60;0.60;;;;;;;;;;4934474;29;20446;-81
2023/05/02 07:42:00;;;;;;;0.60;0.60;;;;;;;;;;4940045;29;20454;-83
2023/05/02 07:44:27;;;;;;;1.80;1.70;;;;;;;;;;4938488;29;20518;-83
2023/05/02 07:46:54;;;;;;;0.70;0.70;;;;;;;;;;4936003;29;20938;-84
2023/05/02 07:49:21;;;;;;;0.60;0.60;;;;;;;;;;4938797;29;20455;-82
2023/05/02 07:51:47;;;;;;;2.50;1.13;;;;;;;;;;4916482;29;20477;-80
2023/05/02 07:54:17;;;;;;;0.60;0.60;;;;;;;;;;4935780;29;20440;-82
2023/05/02 07:56:44;;;;;;;0.60;0.60;;;;;;;;;;4944032;29;20463;-84
2023/05/02 07:59:11;;;;;;;0.63;0.60;;;;;;;;;;4936656;29;20791;-83
2023/05/02 08:01:38;;;;;;;0.70;0.60;;;;;;;;;;4938367;29;20890;-83
2023/05/02 08:04:11;;;;;;;0.70;0.60;;;;;;;;;;4928813;29;20477;-83
2023/05/02 08:06:38;;;;;;;0.67;0.60;;;;;;;;;;4945090;29;20473;-84
2023/05/02 08:09:08;;;;;;;0.70;0.60;;;;;;;;;;4930577;29;20443;-80
2023/05/02 08:11:36;;;;;;;0.70;0.60;;;;;;;;;;4925596;29;20449;-82
2023/05/02 08:14:05;;;;;;;0.60;0.60;;;;;;;;;;4939452;29;20449;-83
2023/05/02 08:16:33;;;;;;;0.70;0.60;;;;;;;;;;4923686;29;20459;-82
2023/05/02 08:19:00;;;;;;;0.70;0.60;;;;;;;;;;4925202;29;20493;-82
2023/05/02 08:21:27;;;;;;;0.70;0.70;;;;;;;;;;4928674;29;20535;-80
2023/05/02 08:23:56;;;;;;;0.70;0.60;;;;;;;;;;4929844;29;20482;-83
2023/05/02 08:26:23;;;;;;;0.70;0.70;;;;;;;;;;4929711;29;20877;-81
2023/05/02 08:28:51;;;;;;;0.70;0.70;;;;;;;;;;4939475;29;20964;-81
2023/05/02 08:31:19;;;;;;;0.70;0.60;;;;;;;;;;4948056;29;20449;-82
2023/05/02 08:33:46;;;;;;;0.70;0.70;;;;;;;;;;4948483;29;20615;-84
2023/05/02 08:38:51;;;;;;;0.70;0.60;;;;;;;;;;5123084;23;20504;-80
2023/05/02 08:41:21;;;;;;;1.50;1.40;;;;;;;;;;4959164;28;20484;-80
2023/05/02 08:43:47;;;;;;;0.70;0.60;;;;;;;;;;4935838;29;20479;-81
2023/05/02 08:46:21;;;;;;;0.70;0.60;;;;;;;;;;4974087;28;20499;-79
2023/05/02 08:48:49;;;;;;;0.90;0.90;;;;;;;;;;4974047;28;20461;-81
2023/05/02 08:51:17;;;;;;;0.70;0.60;;;;;;;;;;4957567;29;20463;-81
2023/05/02 08:53:45;;;;;;;0.70;0.60;;;;;;;;;;4948043;29;20492;-81
2023/05/02 08:56:12;;;;;;;0.70;0.70;;;;;;;;;;4949539;29;20450;-82
2023/05/02 08:58:40;;;;;;;0.70;0.60;;;;;;;;;;4941357;29;20441;-83
2023/05/02 09:01:09;;;;;;;0.70;0.70;;;;;;;;;;4930590;29;20457;-81
2023/05/02 09:03:41;;;;;;;0.70;0.70;;;;;;;;;;4946147;29;20483;-82
2023/05/02 09:06:09;;;;;;;0.70;0.60;;;;;;;;;;4945121;29;20445;-81
2023/05/02 09:08:39;;;;;;;0.70;0.70;;;;;;;;;;4942063;29;20449;-81
2023/05/02 09:11:08;;;;;;;0.70;0.60;;;;;;;;;;4940508;29;20536;-81
2023/05/02 09:13:42;;;;;;;0.70;0.70;;;;;;;;;;4944133;29;20446;-80
2023/05/02 09:16:09;;;;;;;0.90;0.90;;;;;;;;;;4956020;28;20459;-79
2023/05/02 09:18:37;;;;;;;0.70;0.60;;;;;;;;;;4942953;29;20448;-79
2023/05/02 09:21:11;;;;;;;0.70;0.70;;;;;;;;;;4948296;29;20888;-81
2023/05/02 09:23:39;;;;;;;0.70;0.60;;;;;;;;;;4940100;29;20508;-79
2023/05/02 09:26:16;;;;;;;0.70;0.70;;;;;;;;;;4939793;29;20476;-77
2023/05/02 09:28:44;;;;;;;0.70;0.60;;;;;;;;;;4944653;29;20529;-76
2023/05/02 09:31:13;;;;;;;0.70;0.60;;;;;;;;;;4940212;29;20443;-76
2023/05/02 09:33:44;;;;;;;0.70;0.60;;;;;;;;;;4924588;29;20449;-76
2023/05/02 09:36:13;;;;;;;0.70;0.63;;;;;;;;;;4944702;29;20472;-78
2023/05/02 09:38:41;;;;;;;0.70;0.60;;;;;;;;;;4940899;29;20450;-75
2023/05/02 09:41:08;;;;;;;0.70;0.60;;;;;;;;;;4945453;28;20548;-78
2023/05/02 09:43:38;;;;;;;0.70;0.70;;;;;;;;;;4927715;29;20481;-77
2023/05/02 09:46:05;;;;;;;0.70;0.60;;;;;;;;;;4941359;28;20457;-76
2023/05/02 09:48:50;;;;;;;0.70;0.70;;;;;;;;;;4944558;29;20482;-78
2023/05/02 09:51:19;;;;;;;0.70;0.70;;;;;;;;;;4940745;29;20442;-80
2023/05/02 09:53:47;;;;;;;0.70;0.70;;;;;;;;;;4941648;29;20445;-78
2023/05/02 09:56:14;;;;;;;2.03;1.03;;;;;;;;;;4942158;29;20450;-78
2023/05/02 09:58:43;;;;;;;0.97;0.90;;;;;;;;;;4939962;29;20820;-80
2023/05/02 10:01:14;;;;;;;0.70;0.70;;;;;;;;;;4941330;29;20800;-78
2023/05/02 10:03:44;;;;;;;2.57;1.17;;;;;;;;;;4939250;29;20478;-78
2023/05/02 10:06:11;;;;;;;1.07;1.07;;;;;;;;;;4936985;29;20448;-78
2023/05/02 10:08:41;;;;;;;1.67;1.57;;;;;;;;;;4936546;29;20468;-78
2023/05/02 10:11:08;;;;;;;0.70;0.70;;;;;;;;;;4936052;29;20523;-81
2023/05/02 10:13:38;;;;;;;0.70;0.70;;;;;;;;;;4934773;29;20469;-77
2023/05/02 10:16:07;;;;;;;0.70;0.67;;;;;;;;;;4944541;29;20466;-77
2023/05/02 10:18:39;;;;;;;0.70;0.70;;;;;;;;;;4939475;29;20444;-75
2023/05/02 10:21:08;;;;;;;1.60;1.50;;;;;;;;;;4941010;29;20461;-76
2023/05/02 10:23:36;;;;;;;0.80;0.70;;;;;;;;;;4935293;29;20484;-75
2023/05/02 10:26:04;;;;;;;0.73;0.70;;;;;;;;;;4919576;29;20514;-76
2023/05/02 10:28:33;;;;;;;0.80;0.80;;;;;;;;;;4941004;29;20444;-77
2023/05/02 10:31:01;;;;;;;0.93;0.93;;;;;;;;;;4936460;28;20466;-76
2023/05/02 10:33:30;;;;;;;0.70;0.70;;;;;;;;;;4938373;29;20958;-77
2023/05/02 10:35:58;;;;;;;0.70;0.67;;;;;;;;;;4939515;29;20444;-76
2023/05/02 10:38:27;;;;;;;1.37;1.27;;;;;;;;;;4939297;29;20574;-77
2023/05/02 10:40:56;;;;;;;0.70;0.60;;;;;;;;;;4938873;29;20450;-77
2023/05/02 10:43:26;;;;;;;0.80;0.70;;;;;;;;;;4940226;29;20514;-78
2023/05/02 10:45:54;;;;;;;0.90;0.90;;;;;;;;;;4940083;29;20464;-82
2023/05/02 10:48:23;;;;;;;0.70;0.70;;;;;;;;;;4936686;29;20459;-77
2023/05/02 10:50:51;;;;;;;0.70;0.70;;;;;;;;;;4938933;28;20456;-76
2023/05/02 10:53:23;;;;;;;0.80;0.70;;;;;;;;;;4940948;29;20534;-76
2023/05/02 10:56:15;;;;;;;0.70;0.60;;;;;;;;;;4938018;28;20558;-77
2023/05/02 10:58:45;;;;;;;0.80;0.80;;;;;;;;;;4940425;29;20466;-74
2023/05/02 11:01:36;;;;;;;0.80;0.80;;;;;;;;;;4938385;29;20519;-77
2023/05/02 11:04:04;;;;;;;0.70;0.67;;;;;;;;;;4938400;29;20474;-76
2023/05/02 11:06:33;;;;;;;0.70;0.60;;;;;;;;;;4940190;29;20807;-77
2023/05/02 11:09:19;;;;;;;0.80;0.80;;;;;;;;;;4937755;29;20538;-77
2023/05/02 11:11:48;;;;;;;1.23;1.13;;;;;;;;;;4954121;28;20443;-80
2023/05/02 11:14:31;;;;;;;0.73;0.70;;;;;;;;;;4918448;29;20470;-76
2023/05/02 11:17:06;;;;;;;0.70;0.70;;;;;;;;;;4925449;29;20468;-77
2023/05/02 11:19:50;;;;;;;0.70;0.67;;;;;;;;;;4952873;28;20954;-77
2023/05/02 11:22:43;;;;;;;0.70;0.70;;;;;;;;;;4936101;29;20596;-79
2023/05/02 11:25:25;;;;;;;0.77;0.70;;;;;;;;;;4928374;29;20587;-76
2023/05/02 11:27:56;;;;;;;0.87;0.87;;;;;;;;;;4936110;29;20463;-78
2023/05/02 11:30:40;;;;;;;2.70;1.40;;;;;;;;;;4938733;29;20465;-78
2023/05/02 11:33:16;;;;;;;0.70;0.70;;;;;;;;;;4936004;29;20512;-74
2023/05/02 11:35:44;;;;;;;1.10;1.00;;;;;;;;;;4942752;29;20457;-79
2023/05/02 11:38:12;;;;;;;0.80;0.80;;;;;;;;;;4935612;29;20491;-77
2023/05/02 11:40:39;;;;;;;1.13;1.03;;;;;;;;;;4935809;29;20450;-76
2023/05/02 11:43:13;;;;;;;0.70;0.70;;;;;;;;;;4925967;29;20452;-77
2023/05/02 11:45:43;;;;;;;0.70;0.60;;;;;;;;;;4921773;29;20959;-76
2023/05/02 11:48:16;;;;;;;0.80;0.80;;;;;;;;;;4937031;29;20483;-76
2023/05/02 11:50:44;;;;;;;0.70;0.70;;;;;;;;;;4941143;29;20447;-77
2023/05/02 11:53:18;;;;;;;1.47;1.37;;;;;;;;;;4925452;29;21014;-76
2023/05/02 11:55:45;;;;;;;0.70;0.70;;;;;;;;;;4937838;29;20469;-77
2023/05/02 11:58:14;;;;;;;1.73;1.63;;;;;;;;;;4938056;29;20441;-76
2023/05/02 12:00:45;;;;;;;1.83;1.27;;;;;;;;;;4933334;29;20437;-77
2023/05/02 12:03:25;;;;;;;0.80;0.80;;;;;;;;;;4940377;29;20538;-75
2023/05/02 12:05:52;;;;;;;2.70;2.07;;;;;;;;;;4938477;28;20536;-74
2023/05/02 12:08:21;;;;;;;0.77;0.70;;;;;;;;;;4937025;29;20472;-74
2023/05/02 12:10:49;;;;;;;1.43;1.33;;;;;;;;;;4940487;29;20904;-77
2023/05/02 12:13:15;;;;;;;0.70;0.70;;;;;;;;;;4945256;29;20474;-77
2023/05/02 12:15:42;;;;;;;0.80;0.80;;;;;;;;;;4938884;29;20411;-76
2023/05/02 12:18:09;;;;;;;0.70;0.70;;;;;;;;;;4943016;29;20449;-75
2023/05/02 12:20:38;;;;;;;0.70;0.70;;;;;;;;;;4940949;29;20433;-75
2023/05/02 12:23:11;;;;;;;0.80;0.80;;;;;;;;;;4927706;29;20588;-76
2023/05/02 12:25:39;;;;;;;0.70;0.70;;;;;;;;;;4958665;28;20519;-76
2023/05/02 12:28:06;;;;;;;1.80;1.70;;;;;;;;;;4942560;29;20990;-76
2023/05/02 12:30:34;;;;;;;0.70;0.60;;;;;;;;;;4936856;29;20444;-74
2023/05/02 12:33:01;;;;;;;0.70;0.70;;;;;;;;;;4941647;29;20451;-74
2023/05/02 12:35:29;;;;;;;0.70;0.70;;;;;;;;;;4941362;29;20445;-75
2023/05/02 12:38:09;;;;;;;0.70;0.60;;;;;;;;;;4939781;29;20487;-78
2023/05/02 12:40:36;;;;;;;0.77;0.77;;;;;;;;;;4941216;29;20455;-77
2023/05/02 12:43:05;;;;;;;0.70;0.70;;;;;;;;;;4942443;29;20947;-76
2023/05/02 12:45:35;;;;;;;0.80;0.70;;;;;;;;;;4940808;29;20483;-76
2023/05/02 12:48:02;;;;;;;0.77;0.73;;;;;;;;;;4943979;28;20487;-76
2023/05/02 12:50:36;;;;;;;0.70;0.60;;;;;;;;;;4944355;29;20463;-76
2023/05/02 12:53:03;;;;;;;0.80;0.80;;;;;;;;;;4935126;29;20988;-76
2023/05/02 12:55:33;;;;;;;0.80;0.70;;;;;;;;;;4939024;29;21256;-76
2023/05/02 12:58:01;;;;;;;0.70;0.70;;;;;;;;;;4943426;29;20440;-76
2023/05/02 13:00:28;;;;;;;0.70;0.70;;;;;;;;;;4941304;29;20439;-75
2023/05/02 13:02:55;;;;;;;0.80;0.77;;;;;;;;;;4941759;29;20461;-75
2023/05/02 13:05:22;;;;;;;0.70;0.60;;;;;;;;;;4936122;28;20482;-76
2023/05/02 13:07:49;;;;;;;0.70;0.70;;;;;;;;;;4941174;29;20879;-75
2023/05/02 13:10:19;;;;;;;0.70;0.60;;;;;;;;;;4907915;29;20557;-76
2023/05/02 13:12:47;;;;;;;0.70;0.60;;;;;;;;;;4937819;29;20441;-76
2023/05/02 13:15:15;;;;;;;0.90;0.80;;;;;;;;;;4942029;29;20509;-76
2023/05/02 13:17:42;;;;;;;0.70;0.60;;;;;;;;;;4937873;29;20457;-76
2023/05/02 13:20:10;;;;;;;0.80;0.77;;;;;;;;;;4937493;29;20983;-76
2023/05/02 13:22:38;;;;;;;0.70;0.67;;;;;;;;;;4939211;29;20818;-75
2023/05/02 13:25:06;;;;;;;0.70;0.70;;;;;;;;;;4937588;29;20480;-77
2023/05/02 13:27:33;;;;;;;0.70;0.60;;;;;;;;;;4925775;29;20435;-76
2023/05/02 13:30:01;;;;;;;0.80;0.80;;;;;;;;;;4940284;29;20448;-73
2023/05/02 13:32:35;;;;;;;0.80;0.80;;;;;;;;;;4939722;29;20432;-74
2023/05/02 13:35:03;;;;;;;1.17;1.07;;;;;;;;;;4945507;29;20446;-75
2023/05/02 13:37:30;;;;;;;0.77;0.70;;;;;;;;;;4923505;29;20982;-76
2023/05/02 13:39:57;;;;;;;0.80;0.77;;;;;;;;;;4938433;29;20500;-75
2023/05/02 13:42:25;;;;;;;0.80;0.80;;;;;;;;;;4941242;29;20540;-76
2023/05/02 13:44:52;;;;;;;0.80;0.80;;;;;;;;;;4944967;29;21063;-77
2023/05/02 13:47:21;;;;;;;0.70;0.67;;;;;;;;;;4945544;29;20993;-76
2023/05/02 13:49:49;;;;;;;0.70;0.60;;;;;;;;;;4941026;29;20966;-77
2023/05/02 13:52:16;;;;;;;0.77;0.70;;;;;;;;;;4921023;29;20477;-76
2023/05/02 13:54:43;;;;;;;0.70;0.70;;;;;;;;;;4937637;29;21129;-75
2023/05/02 13:57:11;;;;;;;0.70;0.60;;;;;;;;;;4937402;29;21035;-76
2023/05/02 13:59:39;;;;;;;0.70;0.70;;;;;;;;;;4940039;29;20466;-75
2023/05/02 14:02:06;;;;;;;1.30;1.20;;;;;;;;;;4942821;28;20947;-75
2023/05/02 14:04:35;;;;;;;0.80;0.80;;;;;;;;;;4939542;29;20996;-76
2023/05/02 14:07:03;;;;;;;0.80;0.70;;;;;;;;;;4942230;28;20858;-76
2023/05/02 14:09:30;;;;;;;0.70;0.70;;;;;;;;;;4940787;29;20865;-76
2023/05/02 14:11:57;;;;;;;1.60;1.50;;;;;;;;;;4943341;29;20445;-77
2023/05/02 14:14:25;;;;;;;0.80;0.70;;;;;;;;;;4938714;29;21013;-75
2023/05/02 14:16:51;;;;;;;1.00;0.90;;;;;;;;;;4941567;29;20456;-76
2023/05/02 14:19:20;;;;;;;0.70;0.70;;;;;;;;;;4934227;29;20449;-76
2023/05/02 14:21:51;;;;;;;0.70;0.70;;;;;;;;;;4941551;29;20813;-76
2023/05/02 14:24:18;;;;;;;0.70;0.70;;;;;;;;;;4945095;29;20626;-76
2023/05/02 14:26:46;;;;;;;0.70;0.70;;;;;;;;;;4941495;29;20464;-76
2023/05/02 14:29:13;;;;;;;0.80;0.80;;;;;;;;;;4939716;29;20500;-78
2023/05/02 14:31:44;;;;;;;0.80;0.70;;;;;;;;;;4940219;29;20431;-76
2023/05/02 14:34:12;;;;;;;0.73;0.70;;;;;;;;;;4942564;29;20814;-76
2023/05/02 14:36:39;;;;;;;0.70;0.70;;;;;;;;;;4928987;29;20490;-76
2023/05/02 14:39:08;;;;;;;0.70;0.60;;;;;;;;;;4936438;29;20508;-78
2023/05/02 14:41:35;;;;;;;0.80;0.70;;;;;;;;;;4941608;29;20499;-78
2023/05/02 14:44:04;;;;;;;0.80;0.70;;;;;;;;;;4939146;29;20437;-76
2023/05/02 14:46:31;;;;;;;1.63;1.53;;;;;;;;;;4951014;28;20562;-77
2023/05/02 14:49:00;;;;;;;0.70;0.60;;;;;;;;;;4939705;29;20773;-76
2023/05/02 14:51:27;;;;;;;0.70;0.63;;;;;;;;;;4939426;29;20784;-77
2023/05/02 14:53:54;;;;;;;0.70;0.70;;;;;;;;;;4938112;28;20456;-73
2023/05/02 14:56:24;;;;;;;1.00;0.90;;;;;;;;;;4939886;29;20407;-77
2023/05/02 14:58:51;;;;;;;0.70;0.60;;;;;;;;;;4935842;29;20457;-76